createdAt,value
2023-05-02T00:01:13.746Z,1.40
2023-05-02T00:05:15.478Z,1.33
2023-05-02T00:09:17.039Z,1.88
2023-05-02T00:13:18.449Z,1.00
2023-05-02T00:17:20.441Z,1.33
2023-05-02T00:21:22.017Z,1.35
2023-05-02T00:25:23.600Z,1.33
2023-05-02T00:29:25.038Z,1.40
2023-05-02T00:33:26.525Z,2.30
2023-05-02T00:37:28.572Z,2.38
2023-05-02T00:41:30.197Z,1.30
2023-05-02T00:45:32.880Z,1.60
2023-05-02T00:49:34.320Z,1.80
2023-05-02T00:53:36.009Z,1.27
2023-05-02T00:57:37.978Z,1.45
2023-05-02T01:01:57.540Z,2.20
2023-05-02T01:06:19.375Z,2.10
2023-05-02T01:10:41.816Z,2.40
2023-05-02T01:14:54.848Z,1.92
2023-05-02T01:18:59.563Z,2.55
2023-05-02T01:23:09.176Z,1.92
2023-05-02T01:27:24.684Z,2.35
2023-05-02T01:31:29.025Z,2.10
2023-05-02T01:35:33.740Z,2.13
2023-05-02T01:39:36.602Z,2.55
2023-05-02T01:43:39.463Z,3.20
2023-05-02T01:47:44.251Z,3.05
2023-05-02T01:51:47.836Z,3.55
2023-05-02T01:55:50.889Z,3.05
2023-05-02T01:59:55.299Z,3.42
2023-05-02T02:03:58.624Z,3.35
2023-05-02T02:08:00.228Z,2.95
2023-05-02T02:12:07.127Z,3.40
2023-05-02T02:16:12.607Z,3.47
2023-05-02T02:20:15.787Z,3.08
2023-05-02T02:24:20.961Z,2.97
2023-05-02T02:28:22.527Z,3.10
2023-05-02T02:32:24.623Z,2.90
2023-05-02T02:36:33.150Z,3.13
2023-05-02T02:40:42.077Z,3.13
2023-05-02T02:49:01.933Z,4.10
2023-05-02T02:53:08.561Z,5.10
2023-05-02T02:57:18.648Z,5.75
2023-05-02T03:01:22.298Z,3.90
2023-05-02T03:05:24.474Z,3.42
2023-05-02T03:09:30.229Z,4.03
2023-05-02T03:13:31.834Z,4.20
2023-05-02T03:17:33.637Z,3.22
2023-05-02T03:21:35.536Z,4.85
2023-05-02T03:25:44.665Z,4.38
2023-05-02T03:29:51.270Z,3.33
2023-05-02T03:33:54.427Z,2.83
2023-05-02T03:37:56.552Z,1.42
2023-05-02T03:41:58.270Z,2.85
2023-05-02T03:46:06.915Z,2.83
2023-05-02T03:50:11.058Z,1.85
2023-05-02T03:54:13.219Z,1.13
2023-05-02T03:58:16.816Z,2.70
2023-05-02T04:02:20.133Z,1.90
2023-05-02T04:06:23.548Z,2.75
2023-05-02T04:10:31.734Z,3.10
2023-05-02T04:14:36.459Z,2.78
2023-05-02T04:18:39.068Z,2.08
2023-05-02T04:22:42.076Z,2.00
2023-05-02T04:26:43.643Z,3.25
2023-05-02T04:30:49.300Z,3.20
2023-05-02T04:34:52.692Z,2.67
2023-05-02T04:38:55.426Z,3.25
2023-05-02T04:42:57.459Z,2.83
2023-05-02T04:47:04.669Z,2.67
2023-05-02T04:51:06.274Z,1.60
2023-05-02T04:55:08.146Z,1.75
2023-05-02T04:59:10.252Z,2.20
2023-05-02T05:03:12.326Z,1.80
2023-05-02T05:07:13.885Z,1.40
2023-05-02T05:11:17.497Z,1.55
2023-05-02T05:15:23.850Z,1.83
2023-05-02T05:19:29.897Z,1.48
2023-05-02T05:23:32.802Z,1.90
2023-05-02T05:27:35.782Z,2.35
2023-05-02T05:31:37.783Z,2.35
2023-05-02T05:35:40.415Z,1.45
2023-05-02T05:39:41.974Z,2.55
2023-05-02T05:43:44.419Z,1.65
2023-05-02T05:47:46.150Z,1.52
2023-05-02T05:51:48.028Z,1.75
2023-05-02T05:55:51.085Z,1.70
2023-05-02T05:59:53.967Z,1.92
2023-05-02T06:03:56.252Z,1.48
2023-05-02T06:07:58.481Z,2.53
2023-05-02T06:12:02.129Z,1.13
2023-05-02T06:16:06.364Z,2.20
2023-05-02T06:20:09.299Z,2.20
2023-05-02T06:24:10.754Z,1.98
2023-05-02T06:28:12.241Z,2.50
2023-05-02T06:32:13.779Z,1.55
2023-05-02T06:36:15.318Z,1.75
2023-05-02T06:40:16.779Z,1.55
2023-05-02T06:44:18.187Z,2.20
2023-05-02T06:48:19.925Z,1.27
2023-05-02T06:52:21.385Z,2.15
2023-05-02T06:56:25.660Z,1.52
2023-05-02T07:00:27.349Z,0.70
2023-05-02T07:04:28.793Z,1.00
2023-05-02T07:08:30.359Z,1.92
2023-05-02T07:12:31.794Z,2.40
2023-05-02T07:16:33.307Z,1.15
2023-05-02T07:20:34.759Z,1.77
2023-05-02T07:24:36.798Z,1.42
2023-05-02T07:28:38.236Z,0.65
2023-05-02T07:32:39.758Z,1.95
2023-05-02T07:36:41.194Z,1.58
2023-05-02T07:40:43.450Z,1.70
2023-05-02T07:44:45.137Z,1.10
2023-05-02T07:48:46.682Z,1.08
2023-05-02T07:52:48.126Z,1.38
2023-05-02T07:56:49.521Z,1.20
2023-05-02T08:00:50.954Z,1.55
2023-05-02T08:04:52.466Z,1.55
2023-05-02T08:08:54.396Z,1.35
2023-05-02T08:12:56.056Z,1.25
2023-05-02T08:16:59.049Z,1.42
2023-05-02T08:21:00.523Z,1.40
2023-05-02T08:25:01.977Z,0.95
2023-05-02T08:29:04.444Z,1.15
2023-05-02T08:33:05.994Z,1.25
2023-05-02T08:37:12.002Z,1.08
2023-05-02T08:41:17.952Z,1.40
2023-05-02T08:45:20.832Z,1.00
2023-05-02T08:49:22.919Z,1.05
2023-05-02T08:53:25.010Z,1.58
2023-05-02T08:57:28.641Z,1.13
2023-05-02T09:01:33.401Z,1.55
2023-05-02T09:05:41.029Z,1.20
2023-05-02T09:09:42.500Z,1.40
2023-05-02T09:13:48.416Z,0.73
2023-05-02T09:17:49.884Z,1.35
2023-05-02T09:21:51.715Z,1.02
2023-05-02T09:25:53.188Z,1.42
2023-05-02T09:30:24.391Z,0.85
2023-05-02T09:34:25.838Z,0.65
2023-05-02T09:38:27.328Z,0.70
2023-05-02T09:42:32.612Z,0.88
2023-05-02T09:46:45.562Z,1.15
2023-05-02T09:50:47.109Z,1.55
2023-05-02T09:54:50.670Z,0.65
2023-05-02T09:58:52.230Z,0.77
2023-05-02T10:02:53.946Z,1.55
2023-05-02T10:06:56.104Z,1.40
2023-05-02T10:10:59.301Z,1.17
2023-05-02T10:15:04.158Z,0.90
2023-05-02T10:19:12.632Z,0.80
2023-05-02T10:23:15.566Z,0.63
2023-05-02T10:27:17.128Z,1.20
2023-05-02T10:31:19.106Z,1.02
2023-05-02T10:35:21.542Z,0.77
2023-05-02T10:39:24.852Z,0.90
2023-05-02T10:43:30.930Z,0.82
2023-05-02T10:47:32.858Z,1.20
2023-05-02T10:51:36.203Z,1.33
2023-05-02T10:55:37.727Z,1.48
2023-05-02T10:59:40.595Z,0.68
2023-05-02T11:04:02.298Z,1.38
2023-05-02T11:08:15.681Z,1.00
2023-05-02T11:12:47.749Z,0.80
2023-05-02T11:17:15.585Z,1.20
2023-05-02T11:21:32.743Z,1.45
2023-05-02T11:25:37.043Z,0.73
2023-05-02T11:29:58.859Z,1.33
2023-05-02T11:34:02.052Z,1.10
2023-05-02T11:38:10.038Z,1.25
2023-05-02T11:42:28.032Z,0.80
2023-05-02T11:46:30.976Z,1.30
2023-05-02T11:50:34.306Z,1.15
2023-05-02T11:54:36.322Z,0.63
2023-05-02T11:58:37.887Z,1.08
2023-05-02T12:02:44.101Z,0.77
2023-05-02T12:06:56.387Z,0.82
2023-05-02T12:10:57.876Z,0.90
2023-05-02T12:15:07.178Z,0.95
2023-05-02T12:19:08.956Z,0.93
2023-05-02T12:23:11.166Z,1.30
2023-05-02T12:27:14.710Z,1.30
2023-05-02T12:31:16.470Z,0.93
2023-05-02T12:35:23.068Z,1.08
2023-05-02T12:39:38.537Z,1.38
2023-05-02T12:43:46.166Z,1.10
2023-05-02T12:47:47.606Z,1.40
2023-05-02T12:51:53.391Z,1.50
2023-05-02T12:56:04.630Z,1.65
2023-05-02T13:00:06.918Z,1.10
2023-05-02T13:04:08.496Z,0.90
2023-05-02T13:08:09.978Z,1.42
2023-05-02T13:12:11.528Z,1.40
2023-05-02T13:16:13.115Z,1.05
2023-05-02T13:20:14.801Z,1.23
2023-05-02T13:24:17.453Z,1.27
2023-05-02T13:28:19.107Z,1.30
2023-05-02T13:32:21.726Z,0.77
2023-05-02T13:36:24.456Z,1.10
2023-05-02T13:40:25.983Z,1.10
2023-05-02T13:44:27.483Z,1.05
2023-05-02T13:48:29.962Z,0.93
2023-05-02T13:52:31.599Z,1.02
2023-05-02T13:56:33.140Z,0.77
2023-05-02T14:00:34.862Z,0.90
2023-05-02T14:04:36.353Z,1.20
2023-05-02T14:08:38.015Z,1.23
2023-05-02T14:12:39.481Z,1.10
2023-05-02T14:16:41.036Z,1.20
2023-05-02T14:20:42.934Z,1.58
2023-05-02T14:24:44.396Z,1.52
2023-05-02T14:28:46.380Z,1.23
2023-05-02T14:32:47.908Z,1.10
2023-05-02T14:36:49.436Z,1.20
2023-05-02T14:40:51.299Z,1.48
2023-05-02T14:44:53.428Z,0.82
2023-05-02T14:48:54.888Z,0.88
2023-05-02T14:52:56.553Z,0.85
2023-05-02T14:56:59.477Z,1.50
2023-05-02T15:01:01.249Z,0.95
2023-05-02T15:05:05.651Z,1.40
2023-05-02T15:09:07.412Z,0.80
2023-05-02T15:13:08.998Z,1.30
2023-05-02T15:17:10.630Z,1.13
2023-05-02T15:21:12.267Z,1.63
2023-05-02T15:25:13.727Z,1.00
2023-05-02T15:29:15.171Z,0.52
2023-05-02T15:33:16.642Z,1.13
2023-05-02T15:37:18.061Z,1.27
2023-05-02T15:41:19.485Z,1.05
2023-05-02T15:45:20.921Z,0.75
2023-05-02T15:49:24.452Z,0.70
2023-05-02T15:53:26.201Z,1.05
2023-05-02T15:57:27.734Z,1.10
2023-05-02T16:01:29.265Z,0.98
2023-05-02T16:05:31.001Z,1.25
2023-05-02T16:09:32.547Z,1.42
2023-05-02T16:13:34.093Z,0.93
2023-05-02T16:17:35.776Z,1.42
2023-05-02T16:21:37.311Z,1.65
2023-05-02T16:25:39.023Z,1.15
2023-05-02T16:29:40.693Z,1.45
2023-05-02T16:33:42.787Z,1.30
2023-05-02T16:37:44.250Z,1.15
2023-05-02T16:41:45.708Z,0.65
2023-05-02T16:45:47.188Z,1.00
2023-05-02T16:49:53.482Z,0.75
2023-05-02T16:53:55.076Z,1.88
2023-05-02T16:57:56.555Z,0.73
2023-05-02T17:01:58.131Z,0.55
2023-05-02T17:06:01.133Z,1.20
2023-05-02T17:10:04.265Z,1.20
2023-05-02T17:14:06.343Z,1.40
2023-05-02T17:18:08.106Z,0.85
2023-05-02T17:22:09.825Z,1.35
2023-05-02T17:26:15.464Z,1.77
2023-05-02T17:30:16.957Z,1.27
2023-05-02T17:34:18.389Z,0.90
2023-05-02T17:38:20.245Z,1.10
2023-05-02T17:42:21.674Z,0.82
2023-05-02T17:46:23.186Z,1.02
2023-05-02T17:50:24.758Z,1.15
2023-05-02T17:54:26.534Z,1.17
2023-05-02T17:58:28.221Z,1.23
2023-05-02T18:02:29.994Z,1.20
2023-05-02T18:06:32.016Z,1.05
2023-05-02T18:10:37.899Z,0.93
2023-05-02T18:14:39.413Z,1.35
2023-05-02T18:18:41.527Z,1.17
2023-05-02T18:22:43.020Z,0.82
2023-05-02T18:26:44.590Z,1.17
2023-05-02T18:30:46.540Z,0.60
2023-05-02T18:34:48.351Z,0.38
2023-05-02T18:38:49.768Z,0.88
2023-05-02T18:42:51.476Z,0.80
2023-05-02T18:46:53.192Z,1.33
2023-05-02T18:50:57.497Z,1.90
2023-05-02T18:54:59.667Z,1.02
2023-05-02T18:59:04.578Z,1.02
2023-05-02T19:03:06.237Z,1.40
2023-05-02T19:07:07.778Z,1.08
2023-05-02T19:11:09.412Z,0.60
2023-05-02T19:15:11.487Z,0.60
2023-05-02T19:19:12.937Z,0.73
2023-05-02T19:23:20.268Z,0.77
2023-05-02T19:27:22.060Z,1.08
2023-05-02T19:31:23.653Z,0.75
2023-05-02T19:35:25.539Z,1.20
2023-05-02T19:39:28.334Z,0.77
2023-05-02T19:43:29.794Z,0.73
2023-05-02T19:47:32.788Z,0.80
2023-05-02T19:51:35.292Z,0.90
2023-05-02T19:55:36.924Z,0.80
2023-05-02T19:59:38.471Z,0.63
2023-05-02T20:03:40.025Z,0.60
2023-05-02T20:07:41.557Z,0.75
2023-05-02T20:11:42.993Z,1.25
2023-05-02T20:15:44.452Z,1.05
2023-05-02T20:19:46.106Z,0.82
2023-05-02T20:23:47.644Z,1.27
2023-05-02T20:27:50.453Z,1.00
2023-05-02T20:31:52.860Z,1.20
2023-05-02T20:35:55.854Z,0.80
2023-05-02T20:39:57.453Z,1.13
2023-05-02T20:44:01.186Z,0.88
2023-05-02T20:48:02.743Z,0.60
2023-05-02T20:52:05.423Z,1.40
2023-05-02T20:56:07.150Z,0.80
2023-05-02T21:00:11.195Z,0.98
2023-05-02T21:04:12.767Z,1.08
2023-05-02T21:08:14.225Z,1.35
2023-05-02T21:12:16.176Z,0.95
2023-05-02T21:16:18.923Z,0.95
2023-05-02T21:20:20.453Z,1.60
2023-05-02T21:24:21.876Z,1.50
2023-05-02T21:28:23.291Z,0.85
2023-05-02T21:32:25.799Z,0.90
2023-05-02T21:36:27.447Z,1.63
2023-05-02T21:40:31.430Z,1.00
2023-05-02T21:44:33.012Z,1.17
2023-05-02T21:48:34.443Z,1.50
2023-05-02T21:52:36.217Z,0.68
2023-05-02T21:56:37.827Z,1.65
2023-05-02T22:00:40.627Z,1.42
2023-05-02T22:04:42.992Z,0.88
2023-05-02T22:08:44.566Z,1.00
2023-05-02T22:12:46.581Z,1.15
2023-05-02T22:16:48.053Z,0.90
2023-05-02T22:20:49.526Z,0.90
2023-05-02T22:24:51.283Z,1.70
2023-05-02T22:28:52.883Z,1.75
2023-05-02T22:32:54.368Z,1.75
2023-05-02T22:36:55.848Z,0.90
2023-05-02T22:40:57.303Z,1.20
2023-05-02T22:44:58.798Z,1.23
2023-05-02T22:49:00.275Z,1.42
2023-05-02T22:53:03.836Z,0.90
2023-05-02T22:57:05.764Z,1.70
2023-05-02T23:01:07.430Z,1.75
2023-05-02T23:05:09.453Z,2.00
2023-05-02T23:09:11.073Z,1.00
2023-05-02T23:13:12.574Z,0.90
2023-05-02T23:17:14.234Z,1.15
2023-05-02T23:21:16.626Z,1.20
2023-05-02T23:25:18.514Z,0.80
2023-05-02T23:29:20.132Z,1.20
2023-05-02T23:33:21.645Z,1.30
2023-05-02T23:37:23.367Z,1.27
2023-05-02T23:41:26.183Z,1.27
2023-05-02T23:45:27.620Z,1.05
2023-05-02T23:49:29.075Z,1.55
2023-05-02T23:53:30.572Z,1.13
2023-05-02T23:57:32.217Z,0.57
